KPOB/POB METAR and TAF weather

Enter ICAO airport designator
Station Type Date Time Source
KPOB METAR 2020/01/19 00:36 UTC NOAA

KPOB 190036Z AUTO 21007KT 10SM OVC060 12/08 A3009 RMK AO2 PRESFR SLP193 $


Station Type Date Time Source
KPOB Decoded METAR 2020/01/19 00:36 UTC NOAA

Pope Air Force Base, NC, United States (KPOB) 35-10N 079-02W 61M
Jan 18, 2020 - 07:36 PM EST / 2020.01.19 0036 UTC
Wind: from the SSW (210 degrees) at 8 MPH (7 KT):0
Visibility: 10 mile(s):0
Sky conditions: overcast
Temperature: 53 F (12 C)
Dew Point: 46 F (8 C)
Relative Humidity: 76%
Pressure (altimeter): 30.09 in. Hg (1018 hPa)
Pressure tendency: falling rapidly
ob: KPOB 190036Z AUTO 21007KT 10SM OVC060 12/08 A3009 RMK AO2 PRESFR SLP193
cycle: 0

Station Type Date Time Source
KPOB TAF 2020/01/18 18:08 UTC NOAA

TAF KPOB 181800Z 1818/1924 16009KT 9999 BKN030 BKN150 QNH3037INS
BECMG 1819/1820 12012KT 9999 VCSH BKN020 OVC100 WS020/20035KT QNH3035INS
BECMG 1821/1822 20015G30KT 6000 -SHRA SCT007 BKN015 OVC040 WS020/19040KT QNH2987INS
TEMPO 1903/1911 21015G35KT 4800 SHRA OVC007
BECMG 1911/1912 27015G25KT 9999 NSW BKN020 OVC040 QNH2989INS
BECMG 1916/1917 32010G20KT 9999 BKN040 BKN100 QNH2991INS TX14/1820Z TN08/1913Z

Example: see airport list